createdAt,value
2023-03-21T00:04:23.508Z,8.70
2023-03-21T00:09:26.524Z,8.80
2023-03-21T00:14:28.600Z,8.60
2023-03-21T00:19:30.393Z,8.50
2023-03-21T00:24:33.431Z,8.60
2023-03-21T00:29:35.092Z,8.60
2023-03-21T00:34:43.107Z,8.50
2023-03-21T00:39:51.800Z,8.40
2023-03-21T00:44:53.582Z,8.40
2023-03-21T00:49:55.371Z,8.40
2023-03-21T00:54:58.440Z,8.30
2023-03-21T01:00:00.195Z,8.20
2023-03-21T01:05:02.087Z,8.10
2023-03-21T01:10:06.406Z,8.00
2023-03-21T01:15:08.469Z,7.90
2023-03-21T01:20:11.834Z,8.00
2023-03-21T01:25:22.299Z,8.00
2023-03-21T01:30:24.968Z,7.90
2023-03-21T01:35:32.004Z,7.80
2023-03-21T01:40:41.069Z,7.70
2023-03-21T01:46:17.195Z,7.70
2023-03-21T01:51:19.744Z,7.50
2023-03-21T01:56:28.237Z,7.40
2023-03-21T02:01:30.934Z,7.20
2023-03-21T02:06:39.347Z,6.90
2023-03-21T02:23:43.812Z,6.30
2023-03-21T02:28:48.137Z,6.10
2023-03-21T02:34:21.732Z,6.10
2023-03-21T02:39:31.522Z,6.10
2023-03-21T02:44:41.232Z,6.00
2023-03-21T02:49:50.066Z,5.90
2023-03-21T02:54:54.815Z,5.80
2023-03-21T03:00:02.321Z,5.90
2023-03-21T03:05:20.660Z,6.00
2023-03-21T03:10:52.916Z,6.20
2023-03-21T03:16:04.303Z,6.40
2023-03-21T03:21:14.956Z,6.40
2023-03-21T03:26:21.013Z,6.10
2023-03-21T03:31:27.080Z,5.80
2023-03-21T03:36:33.769Z,5.60
2023-03-21T03:42:04.424Z,5.50
2023-03-21T03:47:07.490Z,5.40
2023-03-21T03:52:15.934Z,5.30
2023-03-21T03:57:19.749Z,5.20
2023-03-21T04:02:21.609Z,5.10
2023-03-21T04:07:23.278Z,5.20
2023-03-21T04:12:26.337Z,5.30
2023-03-21T04:17:28.017Z,5.50
2023-03-21T04:22:29.727Z,5.50
2023-03-21T04:27:32.786Z,5.50
2023-03-21T04:32:34.463Z,5.70
2023-03-21T04:37:36.860Z,5.90
2023-03-21T04:42:40.136Z,5.90
2023-03-21T04:47:42.055Z,6.00
2023-03-21T04:52:43.702Z,6.00
2023-03-21T04:57:46.858Z,5.80
2023-03-21T05:02:48.507Z,5.70
2023-03-21T05:07:50.262Z,5.50
2023-03-21T05:12:53.268Z,5.50
2023-03-21T05:17:55.023Z,5.30
2023-03-21T05:22:56.686Z,5.20
2023-03-21T05:27:59.736Z,5.10
2023-03-21T05:33:01.481Z,5.10
2023-03-21T05:38:03.128Z,5.00
2023-03-21T05:43:06.110Z,5.00
2023-03-21T05:48:08.396Z,5.00
2023-03-21T05:53:10.315Z,4.90
2023-03-21T05:58:13.353Z,4.80
2023-03-21T06:03:15.060Z,4.90
2023-03-21T06:08:16.759Z,4.80
2023-03-21T06:13:19.884Z,4.80
2023-03-21T06:18:21.567Z,4.90
2023-03-21T06:23:23.262Z,5.00
2023-03-21T06:28:26.403Z,5.30
2023-03-21T06:33:28.113Z,5.90
2023-03-21T06:38:29.833Z,6.50
2023-03-21T06:43:33.077Z,7.00
2023-03-21T06:48:34.751Z,7.40
2023-03-21T06:53:36.426Z,7.70
2023-03-21T06:58:39.730Z,7.80
2023-03-21T07:03:44.580Z,7.80
2023-03-21T07:08:46.246Z,7.90
2023-03-21T07:13:50.109Z,8.50
2023-03-21T07:18:52.176Z,9.00
2023-03-21T07:23:53.887Z,9.30
2023-03-21T07:28:57.054Z,9.60
2023-03-21T07:33:58.753Z,9.80
2023-03-21T07:39:00.453Z,9.90
2023-03-21T07:44:03.684Z,10.20
2023-03-21T07:49:05.427Z,10.50
2023-03-21T07:54:07.102Z,10.80
2023-03-21T07:59:10.167Z,11.00
2023-03-21T08:04:12.030Z,11.10
2023-03-21T08:09:13.702Z,11.20
2023-03-21T08:14:16.711Z,11.30
2023-03-21T08:19:18.528Z,11.70
2023-03-21T08:24:20.239Z,12.10
2023-03-21T08:29:23.422Z,12.30
2023-03-21T08:34:25.155Z,12.40
2023-03-21T08:39:26.932Z,12.60
2023-03-21T08:44:30.012Z,12.80
2023-03-21T08:49:31.710Z,12.80
2023-03-21T08:54:33.673Z,12.80
2023-03-21T08:59:36.874Z,12.80
2023-03-21T09:04:38.558Z,13.00
2023-03-21T09:09:40.669Z,13.00
2023-03-21T09:14:43.715Z,13.10
2023-03-21T09:19:45.730Z,13.20
2023-03-21T09:24:47.952Z,13.10
2023-03-21T09:29:51.085Z,13.10
2023-03-21T09:34:52.732Z,13.30
2023-03-21T09:39:54.440Z,13.50
2023-03-21T09:45:07.628Z,13.70
2023-03-21T09:50:15.423Z,13.70
2023-03-21T09:55:20.622Z,13.70
2023-03-21T10:00:26.140Z,13.80
2023-03-21T10:05:33.377Z,14.00
2023-03-21T10:10:39.253Z,14.20
2023-03-21T10:15:42.513Z,14.30
2023-03-21T10:20:44.393Z,14.60
2023-03-21T10:25:48.794Z,14.30
2023-03-21T10:30:54.060Z,14.60
2023-03-21T10:35:59.809Z,14.60
2023-03-21T10:41:03.751Z,14.50
2023-03-21T10:46:09.412Z,14.30
2023-03-21T10:51:17.919Z,13.90
2023-03-21T10:56:24.023Z,13.50
2023-03-21T11:01:31.337Z,12.80
2023-03-21T11:06:37.602Z,12.30
2023-03-21T11:11:41.368Z,12.20
2023-03-21T11:16:44.649Z,12.10
2023-03-21T11:21:46.651Z,12.10
2023-03-21T11:26:49.709Z,12.10
2023-03-21T11:32:00.205Z,12.10
2023-03-21T11:37:03.180Z,11.90
2023-03-21T11:42:05.544Z,11.70
2023-03-21T11:47:13.124Z,11.50
2023-03-21T11:52:24.973Z,11.40
2023-03-21T11:57:35.706Z,11.50
2023-03-21T12:02:57.493Z,11.60
2023-03-21T12:08:07.784Z,11.70
2023-03-21T12:13:31.272Z,11.80
2023-03-21T12:18:52.216Z,12.00
2023-03-21T12:24:02.516Z,12.10
2023-03-21T12:29:18.026Z,12.40
2023-03-21T12:34:38.535Z,12.40
2023-03-21T12:39:41.148Z,12.40
2023-03-21T12:44:48.585Z,12.20
2023-03-21T12:49:57.685Z,12.20
2023-03-21T12:55:04.207Z,12.30
2023-03-21T13:00:14.169Z,12.20
2023-03-21T13:05:20.251Z,11.70
2023-03-21T13:10:22.383Z,11.50
2023-03-21T13:15:44.120Z,11.50
2023-03-21T13:20:49.814Z,11.60
2023-03-21T13:25:54.454Z,11.70
2023-03-21T13:31:17.056Z,11.60
2023-03-21T13:36:24.126Z,11.20
2023-03-21T13:41:30.892Z,11.00
2023-03-21T13:46:53.002Z,10.90
2023-03-21T13:52:18.834Z,10.80
2023-03-21T13:57:34.218Z,10.70
2023-03-21T14:02:38.376Z,10.70
2023-03-21T14:07:44.063Z,10.80
2023-03-21T14:12:48.125Z,10.80
2023-03-21T14:17:51.246Z,10.80
2023-03-21T14:22:54.607Z,10.60
2023-03-21T14:27:59.836Z,10.50
2023-03-21T14:33:03.291Z,10.40
2023-03-21T14:38:07.806Z,10.50
2023-03-21T14:43:11.768Z,10.40
2023-03-21T14:48:15.561Z,10.30
2023-03-21T14:53:21.498Z,10.40
2023-03-21T14:58:23.441Z,10.30
2023-03-21T15:03:25.231Z,10.20
2023-03-21T15:08:29.621Z,10.20
2023-03-21T15:13:34.974Z,10.30
2023-03-21T15:18:38.924Z,10.60
2023-03-21T15:23:44.682Z,10.80
2023-03-21T15:28:48.699Z,10.80
2023-03-21T15:33:52.583Z,10.90
2023-03-21T15:38:55.962Z,10.80
2023-03-21T15:44:05.411Z,10.70
2023-03-21T15:49:08.714Z,10.70
2023-03-21T15:54:15.899Z,10.80
2023-03-21T15:59:18.247Z,10.70
2023-03-21T16:04:20.088Z,10.70
2023-03-21T16:09:23.659Z,10.70
2023-03-21T16:14:26.811Z,10.60
2023-03-21T16:19:28.521Z,10.40
2023-03-21T16:24:31.613Z,10.30
2023-03-21T16:29:33.474Z,10.20
2023-03-21T16:34:35.232Z,10.20
2023-03-21T16:39:38.770Z,10.10
2023-03-21T16:44:40.473Z,10.00
2023-03-21T16:49:42.509Z,9.90
2023-03-21T16:54:45.530Z,10.00
2023-03-21T16:59:47.192Z,10.00
2023-03-21T17:04:48.893Z,10.00
2023-03-21T17:09:51.933Z,10.00
2023-03-21T17:14:53.582Z,9.90
2023-03-21T17:19:55.285Z,9.70
2023-03-21T17:24:58.387Z,9.90
2023-03-21T17:30:00.301Z,9.90
2023-03-21T17:35:02.225Z,9.90
2023-03-21T17:40:06.685Z,10.00
2023-03-21T17:45:09.235Z,9.80
2023-03-21T17:50:15.397Z,9.70
2023-03-21T17:55:19.300Z,9.60
2023-03-21T18:00:23.195Z,9.50
2023-03-21T18:05:25.478Z,9.50
2023-03-21T18:10:28.741Z,9.30
2023-03-21T18:15:30.831Z,9.00
2023-03-21T18:20:50.809Z,9.00
2023-03-21T18:25:55.549Z,8.80
2023-03-21T18:31:09.473Z,8.70
2023-03-21T18:36:14.407Z,8.50
2023-03-21T18:41:17.447Z,8.10
2023-03-21T18:46:19.257Z,7.90
2023-03-21T18:51:20.948Z,7.80
2023-03-21T18:57:13.260Z,7.70
2023-03-21T19:01:45.956Z,7.70
2023-03-21T19:06:48.341Z,7.70
2023-03-21T19:11:51.403Z,7.70
2023-03-21T19:18:02.974Z,7.80
2023-03-21T19:22:15.065Z,7.80
2023-03-21T19:27:18.116Z,7.80
2023-03-21T19:32:23.171Z,7.80
2023-03-21T19:37:24.793Z,7.70
2023-03-21T19:42:30.666Z,7.50
2023-03-21T19:47:35.417Z,7.40
2023-03-21T19:52:37.181Z,7.30
2023-03-21T19:57:40.309Z,7.10
2023-03-21T20:02:42.199Z,7.00
2023-03-21T20:07:43.896Z,6.90
2023-03-21T20:12:47.098Z,7.00
2023-03-21T20:17:49.297Z,7.00
2023-03-21T20:23:08.406Z,7.00
2023-03-21T20:28:17.079Z,7.00
2023-03-21T20:33:27.050Z,6.90
2023-03-21T20:38:29.405Z,7.00
2023-03-21T20:48:54.404Z,6.90
2023-03-21T20:53:56.059Z,6.90
2023-03-21T20:59:14.583Z,6.90
2023-03-21T21:04:17.376Z,6.90
2023-03-21T21:09:19.007Z,7.10
2023-03-21T21:14:21.992Z,7.10
2023-03-21T21:19:23.646Z,6.80
2023-03-21T21:24:25.455Z,6.50
2023-03-21T21:29:28.536Z,6.30
2023-03-21T21:34:30.278Z,6.20
2023-03-21T21:39:32.117Z,6.30
2023-03-21T21:44:35.210Z,6.30
2023-03-21T21:49:36.930Z,6.20
2023-03-21T21:54:38.930Z,6.20
2023-03-21T21:59:41.984Z,6.00
2023-03-21T22:04:43.775Z,6.00
2023-03-21T22:09:45.418Z,6.10
2023-03-21T22:14:48.498Z,6.00
2023-03-21T22:20:04.301Z,6.00
2023-03-21T22:25:09.740Z,6.10
2023-03-21T22:30:16.036Z,6.20
2023-03-21T22:35:17.911Z,6.30
2023-03-21T22:40:19.744Z,6.20
2023-03-21T22:45:22.890Z,6.20
2023-03-21T22:50:24.539Z,6.10
2023-03-21T22:55:26.264Z,6.00
2023-03-21T23:00:29.387Z,5.90
2023-03-21T23:05:31.456Z,5.70
2023-03-21T23:10:33.138Z,5.40
2023-03-21T23:15:36.183Z,5.20
2023-03-21T23:20:38.367Z,5.20
2023-03-21T23:25:42.369Z,5.20
2023-03-21T23:30:45.632Z,5.10
2023-03-21T23:35:47.362Z,4.90
2023-03-21T23:40:49.016Z,4.90
2023-03-21T23:45:52.233Z,4.90
2023-03-21T23:50:54.316Z,5.10
2023-03-21T23:55:56.140Z,5.10
